Terminal Aerodrome Forecast
Issued by NWS Twin Cities, MN

Home | Current Version | Previous Version | Graphics & Text | Print | Product List | Glossary On
Versions: 1 2 3 4 5 6 7 8 9 10 11 12 13 14
763
FTUS43 KMPX 110520
TAFEAU
TAF
KEAU 110520Z 1106/1206 VRB03KT P6SM SCT120
     FM111500 24006KT P6SM BKN150
     FM120000 23004KT P6SM OVC050=

USA.gov is the U.S. government's official web portal to all federal, state and local government web resources and services.